Observation data for Memphis on 02/14/2018      Previous  Date  Next       Current Mesonet Observations  Soil Data  Daily Summary Page  Observations in Plain Language
KMES 140600Z 18003KT 05/02 A3022 RMK A01 T00530024  RH  083%=      5-min Rain = 0
KMES 140605Z 18003KT 06/03 A3022 RMK A01 T00550025  RH  082%=      5-min Rain = 0
KMES 140610Z 17003KT 05/02 A3022 RMK A01 T00510020  RH  081%=      5-min Rain = 0
KMES 140615Z 19002KT 05/02 A3022 RMK A01 T00510021  RH  082%=      5-min Rain = 0
KMES 140620Z 19002KT 05/02 A3022 RMK A01 T00490020  RH  082%=      5-min Rain = 0
KMES 140625Z 19002KT 05/02 A3021 RMK A01 T00490020  RH  083%=      5-min Rain = 0
KMES 140630Z 20001KT 05/02 A3021 RMK A01 T00480019  RH  083%=      5-min Rain = 0
KMES 140635Z 20001KT 05/02 A3021 RMK A01 T00450015  RH  082%=      5-min Rain = 0
KMES 140640Z 20000KT 04/01 A3021 RMK A01 T00420012  RH  082%=      5-min Rain = 0
KMES 140645Z 31001KT 03/M00 A302 RMK A01 T00321004  RH  078%=      5-min Rain = 0
KMES 140650Z 31002KT 03/00 A3021 RMK A01 T00320000  RH  081%=      5-min Rain = 0
KMES 140655Z 30002KT 03/00 A3021 RMK A01 T00330002  RH  081%=      5-min Rain = 0
KMES 140700Z 29002KT 03/00 A302 RMK A01 T00330004  RH  082%=      5-min Rain = 0
KMES 140705Z 25002KT 04/01 A302 RMK A01 T00350008  RH  083%=      5-min Rain = 0
KMES 140710Z 25002KT 03/00 A302 RMK A01 T00330004  RH  082%=      5-min Rain = 0
KMES 140715Z 24002KT 03/00 A3021 RMK A01 T00300001  RH  082%=      5-min Rain = 0
KMES 140720Z 25002KT 03/00 A3021 RMK A01 T00290000  RH  083%=      5-min Rain = 0
KMES 140725Z 24001KT 03/M00 A302 RMK A01 T00251004  RH  082%=      5-min Rain = 0
KMES 140730Z 24000KT 02/M01 A302 RMK A01 T00211010  RH  081%=      5-min Rain = 0
KMES 140735Z 00000KT 02/M02 A3021 RMK A01 T00161019  RH  078%=      5-min Rain = 0
KMES 140740Z 00000KT 01/M02 A3021 RMK A01 T00131024  RH  078%=      5-min Rain = 0
KMES 140745Z 21000KT 01/M02 A302 RMK A01 T00121023  RH  078%=      5-min Rain = 0
KMES 140750Z 09002KT 01/M02 A302 RMK A01 T00131020  RH  080%=      5-min Rain = 0
KMES 140755Z 11003KT 01/M02 A302 RMK A01 T00121019  RH  081%=      5-min Rain = 0
KMES 140800Z 11003KT 01/M02 A302 RMK A01 T00111017  RH  082%=      5-min Rain = 0
KMES 140805Z 10001KT 01/M02 A302 RMK A01 T00111015  RH  083%=      5-min Rain = 0
KMES 140810Z 11001KT 01/M01 A3019 RMK A01 T00131012  RH  084%=      5-min Rain = 0
KMES 140815Z 11001KT 01/M01 A3019 RMK A01 T00141012  RH  084%=      5-min Rain = 0
KMES 140820Z 12001KT 01/M01 A3019 RMK A01 T00141011  RH  085%=      5-min Rain = 0
KMES 140825Z 14003KT 02/M01 A3019 RMK A01 T00171006  RH  086%=      5-min Rain = 0
KMES 140830Z 15002KT 02/M01 A3019 RMK A01 T00181007  RH  085%=      5-min Rain = 0
KMES 140835Z 15003KT 01/M01 A3019 RMK A01 T00131011  RH  084%=      5-min Rain = 0
KMES 140840Z 16002KT 01/M01 A3019 RMK A01 T00131013  RH  084%=      5-min Rain = 0
KMES 140845Z 16002KT 01/M01 A3019 RMK A01 T00131012  RH  084%=      5-min Rain = 0
KMES 140850Z 16001KT 01/M01 A3018 RMK A01 T00131014  RH  084%=      5-min Rain = 0
KMES 140855Z 16000KT 01/M01 A3018 RMK A01 T00141011  RH  084%=      5-min Rain = 0
KMES 140900Z 00000KT 02/M01 A3018 RMK A01 T00171007  RH  085%=      5-min Rain = 0
KMES 140905Z 16000KT 02/M01 A3018 RMK A01 T00181007  RH  084%=      5-min Rain = 0
KMES 140910Z 00000KT 01/M02 A3018 RMK A01 T00131016  RH  082%=      5-min Rain = 0
KMES 140915Z 16000KT 01/M02 A3018 RMK A01 T00111020  RH  081%=      5-min Rain = 0
KMES 140920Z 00000KT 01/M02 A3018 RMK A01 T00131016  RH  082%=      5-min Rain = 0
KMES 140925Z 00000KT 02/M01 A3018 RMK A01 T00151012  RH  083%=      5-min Rain = 0
KMES 140930Z 00000KT 02/M01 A3018 RMK A01 T00161011  RH  083%=      5-min Rain = 0
KMES 140935Z 00000KT 02/M01 A3017 RMK A01 T00151014  RH  082%=      5-min Rain = 0
KMES 140940Z 02001KT 01/M02 A3017 RMK A01 T00121020  RH  080%=      5-min Rain = 0
KMES 140945Z 00001KT 01/M02 A3017 RMK A01 T00131016  RH  082%=      5-min Rain = 0
KMES 140950Z 00000KT 02/M01 A3016 RMK A01 T00151013  RH  083%=      5-min Rain = 0
KMES 140955Z 00000KT 02/M01 A3017 RMK A01 T00181007  RH  085%=      5-min Rain = 0
KMES 141000Z 10001KT 02/M01 A3016 RMK A01 T00161010  RH  083%=      5-min Rain = 0
KMES 141005Z 13000KT 01/M02 A3016 RMK A01 T00121015  RH  083%=      5-min Rain = 0
KMES 141010Z 13001KT 01/M01 A3016 RMK A01 T00141012  RH  084%=      5-min Rain = 0
KMES 141015Z 22001KT 02/M01 A3016 RMK A01 T00161008  RH  085%=      5-min Rain = 0
KMES 141020Z 28002KT 02/M01 A3017 RMK A01 T00171007  RH  085%=      5-min Rain = 0
KMES 141025Z 29003KT 02/M01 A3017 RMK A01 T00151008  RH  086%=      5-min Rain = 0
KMES 141030Z 29002KT 01/M01 A3016 RMK A01 T00141007  RH  087%=      5-min Rain = 0
KMES 141035Z 27002KT 01/M01 A3016 RMK A01 T00141007  RH  087%=      5-min Rain = 0
KMES 141040Z 24001KT 02/M00 A3016 RMK A01 T00161004  RH  088%=      5-min Rain = 0
KMES 141045Z 25001KT 01/M01 A3016 RMK A01 T00131008  RH  087%=      5-min Rain = 0
KMES 141050Z 24001KT 01/M01 A3016 RMK A01 T00121009  RH  087%=      5-min Rain = 0
KMES 141055Z 33002KT 01/M01 A3016 RMK A01 T00091014  RH  085%=      5-min Rain = 0
KMES 141100Z 32001KT 01/M02 A3016 RMK A01 T00071018  RH  084%=      5-min Rain = 0
KMES 141105Z 33001KT 01/M02 A3016 RMK A01 T00061020  RH  083%=      5-min Rain = 0
KMES 141110Z 34001KT 01/M02 A3016 RMK A01 T00051022  RH  083%=      5-min Rain = 0
KMES 141115Z 35001KT 01/M02 A3015 RMK A01 T00051022  RH  083%=      5-min Rain = 0
KMES 141120Z 35000KT 01/M02 A3015 RMK A01 T00051021  RH  084%=      5-min Rain = 0
KMES 141125Z 05001KT 00/M02 A3015 RMK A01 T00041021  RH  084%=      5-min Rain = 0
KMES 141130Z 05001KT 00/M02 A3015 RMK A01 T00031021  RH  085%=      5-min Rain = 0
KMES 141135Z 04000KT 00/M02 A3015 RMK A01 T00041018  RH  086%=      5-min Rain = 0
KMES 141140Z 04000KT 01/M02 A3015 RMK A01 T00051016  RH  087%=      5-min Rain = 0
KMES 141145Z 00000KT 01/M02 A3015 RMK A01 T00051016  RH  086%=      5-min Rain = 0
KMES 141150Z 01001KT 00/M02 A3015 RMK A01 T00031020  RH  086%=      5-min Rain = 0
KMES 141155Z 35002KT 00/M02 A3015 RMK A01 T00011020  RH  086%=      5-min Rain = 0
KMES 141200Z 33002KT 00/M02 A3015 RMK A01 T00041017  RH  087%=      5-min Rain = 0
KMES 141205Z 33002KT 01/M02 A3015 RMK A01 T00051015  RH  088%=      5-min Rain = 0
KMES 141210Z 31002KT 01/M01 A3015 RMK A01 T00051014  RH  088%=      5-min Rain = 0
KMES 141215Z 29001KT 01/M01 A3016 RMK A01 T00071011  RH  088%=      5-min Rain = 0
KMES 141220Z 29000KT 01/M01 A3015 RMK A01 T00051014  RH  088%=      5-min Rain = 0
KMES 141225Z 00000KT 00/M02 A3015 RMK A01 T00021019  RH  087%=      5-min Rain = 0
KMES 141230Z 29001KT M00/M02 A3015 RMK A01 T10011022  RH  087%=      5-min Rain = 0
KMES 141235Z 29000KT M00/M02 A3016 RMK A01 T10021023  RH  087%=      5-min Rain = 0
KMES 141240Z 22001KT 00/02 A3016 RMK A01 T00000-20  RH  087%=      5-min Rain = 0
KMES 141245Z 22001KT M00/M02 A3016 RMK A01 T10011022  RH  087%=      5-min Rain = 0
KMES 141250Z 22000KT M00/M02 A3016 RMK A01 T10021023  RH  086%=      5-min Rain = 0
KMES 141255Z 00000KT M00/M03 A3016 RMK A01 T10031025  RH  086%=      5-min Rain = 0
KMES 141300Z 00000KT M01/M03 A3016 RMK A01 T10071031  RH  084%=      5-min Rain = 0
KMES 141305Z 00000KT M01/M03 A3016 RMK A01 T10081032  RH  085%=      5-min Rain = 0
KMES 141310Z 00000KT M01/M04 A3016 RMK A01 T10091035  RH  083%=      5-min Rain = 0
KMES 141315Z 00000KT M01/M04 A3016 RMK A01 T10111038  RH  083%=      5-min Rain = 0
KMES 141320Z 00000KT M01/M04 A3016 RMK A01 T10111038  RH  083%=      5-min Rain = 0
KMES 141325Z 00000KT M01/M04 A3016 RMK A01 T10101037  RH  083%=      5-min Rain = 0
KMES 141330Z 22000KT M01/M04 A3016 RMK A01 T10121041  RH  082%=      5-min Rain = 0
KMES 141335Z 29001KT M01/M04 A3015 RMK A01 T10141043  RH  081%=      5-min Rain = 0
KMES 141340Z 33002KT M01/M04 A3015 RMK A01 T10121037  RH  084%=      5-min Rain = 0
KMES 141345Z 34003KT M01/M04 A3015 RMK A01 T10091035  RH  084%=      5-min Rain = 0
KMES 141350Z 34003KT M01/M04 A3015 RMK A01 T10091036  RH  083%=      5-min Rain = 0
KMES 141355Z 33002KT M00/M03 A3015 RMK A01 T10041027  RH  085%=      5-min Rain = 0
KMES 141400Z 33002KT 00/M02 A3015 RMK A01 T00021021  RH  086%=      5-min Rain = 0
KMES 141405Z 33001KT 01/M02 A3015 RMK A01 T00051019  RH  085%=      5-min Rain = 0
KMES 141410Z 33001KT 01/M02 A3015 RMK A01 T00081015  RH  085%=      5-min Rain = 0
KMES 141415Z 30001KT 01/M01 A3015 RMK A01 T00111012  RH  086%=      5-min Rain = 0
KMES 141420Z 27001KT 01/M01 A3015 RMK A01 T00131010  RH  086%=      5-min Rain = 0
KMES 141425Z 25001KT 01/M01 A3015 RMK A01 T00141010  RH  085%=      5-min Rain = 0
KMES 141430Z 25001KT 02/M01 A3015 RMK A01 T00151008  RH  085%=      5-min Rain = 0
KMES 141435Z 25000KT 02/M01 A3015 RMK A01 T00181005  RH  085%=      5-min Rain = 0
KMES 141440Z 25000KT 02/M00 A3015 RMK A01 T00241002  RH  083%=      5-min Rain = 0
KMES 141445Z 27002KT 03/00 A3015 RMK A01 T00320004  RH  083%=      5-min Rain = 0
KMES 141450Z 27001KT 04/01 A3015 RMK A01 T00420013  RH  082%=      5-min Rain = 0
KMES 141455Z 21002KT 05/02 A3015 RMK A01 T00500017  RH  080%=      5-min Rain = 0
KMES 141500Z 19002KT 06/02 A3016 RMK A01 T00570020  RH  078%=      5-min Rain = 0
KMES 141505Z 18002KT 06/02 A3015 RMK A01 T00620022  RH  076%=      5-min Rain = 0
KMES 141510Z 20001KT 07/03 A3015 RMK A01 T00670025  RH  076%=      5-min Rain = 0
KMES 141515Z 21003KT 07/03 A3015 RMK A01 T00730028  RH  074%=      5-min Rain = 0
KMES 141520Z 21003KT 08/03 A3015 RMK A01 T00780030  RH  072%=      5-min Rain = 0
KMES 141525Z 21004KT 08/03 A3015 RMK A01 T00830030  RH  070%=      5-min Rain = 0
KMES 141530Z 20005KT 09/03 A3015 RMK A01 T00860031  RH  069%=      5-min Rain = 0
KMES 141535Z 22005KT 09/03 A3015 RMK A01 T00910031  RH  067%=      5-min Rain = 0
KMES 141540Z 22004KT 09/03 A3015 RMK A01 T00940031  RH  065%=      5-min Rain = 0
KMES 141545Z 23005KT 10/03 A3015 RMK A01 T00990031  RH  063%=      5-min Rain = 0
KMES 141550Z 22005KT 10/03 A3015 RMK A01 T01040032  RH  062%=      5-min Rain = 0
KMES 141555Z 21005KT 11/03 A3015 RMK A01 T01090031  RH  060%=      5-min Rain = 0
KMES 141600Z 21006KT 11/03 A3015 RMK A01 T01120031  RH  058%=      5-min Rain = 0
KMES 141605Z 22005KT 12/03 A3015 RMK A01 T01150030  RH  057%=      5-min Rain = 0
KMES 141610Z 22006KT 12/03 A3015 RMK A01 T01190028  RH  054%=      5-min Rain = 0
KMES 141615Z 23006KT 12/03 A3015 RMK A01 T01240026  RH  052%=      5-min Rain = 0
KMES 141620Z 24006KT 13/02 A3014 RMK A01 T01300024  RH  049%=      5-min Rain = 0
KMES 141625Z 25006KT 13/02 A3014 RMK A01 T01330023  RH  048%=      5-min Rain = 0
KMES 141630Z 25007KT 14/02 A3014 RMK A01 T01380020  RH  045%=      5-min Rain = 0
KMES 141635Z 24007KT 14/02 A3014 RMK A01 T01440017  RH  043%=      5-min Rain = 0
KMES 141640Z 25008KT 15/02 A3014 RMK A01 T01510016  RH  040%=      5-min Rain = 0
KMES 141645Z 25009KT 16/01 A3014 RMK A01 T01550011  RH  038%=      5-min Rain = 0
KMES 141650Z 25008KT 16/00 A3013 RMK A01 T01590002  RH  035%=      5-min Rain = 0
KMES 141655Z 25007G13KT 16/M00 A3013 RMK A01 T01641003  RH  033%=      5-min Rain = 0
KMES 141700Z 25008KT 17/M01 A3013 RMK A01 T01671005  RH  031%=      5-min Rain = 0
KMES 141705Z 24007KT 17/M01 A3013 RMK A01 T01691007  RH  031%=      5-min Rain = 0
KMES 141710Z 24008KT 17/M01 A3013 RMK A01 T01721009  RH  030%=      5-min Rain = 0
KMES 141715Z 23008KT 17/M01 A3012 RMK A01 T01741008  RH  029%=      5-min Rain = 0
KMES 141720Z 23008KT 18/M01 A3012 RMK A01 T01791007  RH  029%=      5-min Rain = 0
KMES 141725Z 23008KT 19/M01 A3012 RMK A01 T01851007  RH  028%=      5-min Rain = 0
KMES 141730Z 23009KT 19/M01 A3012 RMK A01 T01911008  RH  026%=      5-min Rain = 0
KMES 141735Z 23010G15KT 20/M01 A3012 RMK A01 T01971011  RH  025%=      5-min Rain = 0
KMES 141740Z 23012KT 20/M01 A3012 RMK A01 T01991013  RH  024%=      5-min Rain = 0
KMES 141745Z 22011KT 20/M01 A3011 RMK A01 T02001013  RH  024%=      5-min Rain = 0
KMES 141750Z 23011KT 20/M01 A3011 RMK A01 T02011013  RH  024%=      5-min Rain = 0
KMES 141755Z 23010KT 20/M01 A3011 RMK A01 T02021012  RH  024%=      5-min Rain = 0
KMES 141800Z 23012KT 20/M01 A301 RMK A01 T02031013  RH  024%=      5-min Rain = 0
KMES 141805Z 24010KT 21/M01 A301 RMK A01 T02051012  RH  024%=      5-min Rain = 0
KMES 141810Z 25010KT 20/M01 A301 RMK A01 T02041013  RH  023%=      5-min Rain = 0
KMES 141815Z 26008G13KT 20/M01 A3009 RMK A01 T02041012  RH  024%=      5-min Rain = 0
KMES 141820Z 24009G15KT 21/M01 A3009 RMK A01 T02081011  RH  023%=      5-min Rain = 0
KMES 141825Z 24011KT 21/M01 A3009 RMK A01 T02131011  RH  022%=      5-min Rain = 0
KMES 141830Z 24012KT 21/M01 A3008 RMK A01 T02121012  RH  023%=      5-min Rain = 0
KMES 141835Z 25008KT 22/M01 A3008 RMK A01 T02161011  RH  022%=      5-min Rain = 0
KMES 141840Z 24008KT 22/M01 A3008 RMK A01 T02201009  RH  022%=      5-min Rain = 0
KMES 141845Z 25009KT 23/M01 A3007 RMK A01 T02261010  RH  021%=      5-min Rain = 0
KMES 141850Z 23011KT 23/M01 A3007 RMK A01 T02311011  RH  020%=      5-min Rain = 0
KMES 141855Z 23010KT 23/M01 A3007 RMK A01 T02331011  RH  020%=      5-min Rain = 0
KMES 141900Z 23009KT 24/M01 A3006 RMK A01 T02351012  RH  020%=      5-min Rain = 0
KMES 141905Z 23009G14KT 24/M01 A3006 RMK A01 T02381013  RH  019%=      5-min Rain = 0
KMES 141910Z 24007KT 24/M01 A3006 RMK A01 T02421013  RH  019%=      5-min Rain = 0
KMES 141915Z 24009KT 24/M02 A3005 RMK A01 T02431015  RH  018%=      5-min Rain = 0
KMES 141920Z 23009KT 25/M02 A3005 RMK A01 T02451015  RH  018%=      5-min Rain = 0
KMES 141925Z 24008KT 25/M01 A3004 RMK A01 T02471014  RH  018%=      5-min Rain = 0
KMES 141930Z 23009KT 25/M02 A3004 RMK A01 T02491016  RH  018%=      5-min Rain = 0
KMES 141935Z 22008KT 25/M02 A3003 RMK A01 T02531016  RH  017%=      5-min Rain = 0
KMES 141940Z 22009KT 26/M02 A3003 RMK A01 T02571019  RH  016%=      5-min Rain = 0
KMES 141945Z 24007G12KT 26/M02 A3003 RMK A01 T02591021  RH  016%=      5-min Rain = 0
KMES 141950Z 22010KT 26/M03 A3002 RMK A01 T02611025  RH  015%=      5-min Rain = 0
KMES 141955Z 23008G13KT 26/M03 A3002 RMK A01 T02631027  RH  015%=      5-min Rain = 0
KMES 142000Z 24007KT 26/M03 A3001 RMK A01 T02641025  RH  015%=      5-min Rain = 0
KMES 142005Z 24006KT 27/M03 A3001 RMK A01 T02651028  RH  015%=      5-min Rain = 0
KMES 142010Z 23008G15KT 27/M03 A30 RMK A01 T02681033  RH  014%=      5-min Rain = 0
KMES 142015Z 23009G14KT 27/M04 A2999 RMK A01 T02721035  RH  013%=      5-min Rain = 0
KMES 142020Z 23008G13KT 27/M04 A2999 RMK A01 T02741036  RH  013%=      5-min Rain = 0
KMES 142025Z 23011G18KT 28/M04 A2999 RMK A01 T02791038  RH  012%=      5-min Rain = 0
KMES 142030Z 23013G21KT 28/M04 A2999 RMK A01 T02841044  RH  011%=      5-min Rain = 0
KMES 142035Z 22019G25KT 29/M06 A2999 RMK A01 T02861057  RH  010%=      5-min Rain = 0
KMES 142040Z 22015G22KT 29/M06 A2998 RMK A01 T02871061  RH  010%=      5-min Rain = 0
KMES 142045Z 21015G21KT 29/M06 A2998 RMK A01 T02901064  RH  010%=      5-min Rain = 0
KMES 142050Z 22015G22KT 29/M06 A2997 RMK A01 T02911063  RH  010%=      5-min Rain = 0
KMES 142055Z 21017G23KT 29/M07 A2997 RMK A01 T02911066  RH  009%=      5-min Rain = 0
KMES 142100Z 21014G19KT 29/M07 A2997 RMK A01 T02901066  RH  009%=      5-min Rain = 0
KMES 142105Z 22014G19KT 29/M07 A2997 RMK A01 T02921068  RH  009%=      5-min Rain = 0
KMES 142110Z 22015G20KT 29/M07 A2997 RMK A01 T02921068  RH  009%=      5-min Rain = 0
KMES 142115Z 21011G18KT 29/M07 A2996 RMK A01 T02911066  RH  009%=      5-min Rain = 0
KMES 142120Z 20014G19KT 29/M07 A2996 RMK A01 T02911070  RH  009%=      5-min Rain = 0
KMES 142125Z 20016G23KT 29/M07 A2996 RMK A01 T02921071  RH  009%=      5-min Rain = 0
KMES 142130Z 21014KT 29/M07 A2996 RMK A01 T02921070  RH  009%=      5-min Rain = 0
KMES 142135Z 21013G18KT 29/M07 A2996 RMK A01 T02921069  RH  009%=      5-min Rain = 0
KMES 142140Z 21015G22KT 29/M07 A2995 RMK A01 T02911070  RH  009%=      5-min Rain = 0
KMES 142145Z 21016G21KT 29/M07 A2995 RMK A01 T02911069  RH  009%=      5-min Rain = 0
KMES 142150Z 22013G19KT 29/M07 A2995 RMK A01 T02901072  RH  009%=      5-min Rain = 0
KMES 142155Z 21012G21KT 29/M07 A2995 RMK A01 T02911071  RH  009%=      5-min Rain = 0
KMES 142200Z 21012G20KT 29/M07 A2994 RMK A01 T02911070  RH  009%=      5-min Rain = 0
KMES 142205Z 21014KT 29/M07 A2994 RMK A01 T02911070  RH  009%=      5-min Rain = 0
KMES 142210Z 21012G21KT 29/M07 A2994 RMK A01 T02901068  RH  009%=      5-min Rain = 0
KMES 142215Z 21014G19KT 29/M07 A2993 RMK A01 T02891065  RH  010%=      5-min Rain = 0
KMES 142220Z 21015G21KT 29/M06 A2993 RMK A01 T02891064  RH  010%=      5-min Rain = 0
KMES 142225Z 21015G21KT 29/M07 A2993 RMK A01 T02881065  RH  010%=      5-min Rain = 0
KMES 142230Z 21014G20KT 29/M06 A2993 RMK A01 T02891064  RH  010%=      5-min Rain = 0
KMES 142235Z 22009KT 29/M06 A2993 RMK A01 T02901062  RH  010%=      5-min Rain = 0
KMES 142240Z 21010G15KT 29/M06 A2993 RMK A01 T02901061  RH  010%=      5-min Rain = 0
KMES 142245Z 21013KT 29/M06 A2992 RMK A01 T02901060  RH  010%=      5-min Rain = 0
KMES 142250Z 21013G18KT 29/M06 A2992 RMK A01 T02901059  RH  010%=      5-min Rain = 0
KMES 142255Z 22013G20KT 29/M06 A2992 RMK A01 T02901058  RH  010%=      5-min Rain = 0
KMES 142300Z 20012G18KT 29/M06 A2992 RMK A01 T02891056  RH  010%=      5-min Rain = 0
KMES 142305Z 21013G19KT 29/M06 A2991 RMK A01 T02881056  RH  010%=      5-min Rain = 0
KMES 142310Z 21011G18KT 29/M06 A2991 RMK A01 T02871055  RH  010%=      5-min Rain = 0
KMES 142315Z 21010KT 29/M06 A2991 RMK A01 T02851055  RH  011%=      5-min Rain = 0
KMES 142320Z 21009G14KT 28/M06 A299 RMK A01 T02831055  RH  011%=      5-min Rain = 0
KMES 142325Z 19008KT 28/M05 A299 RMK A01 T02801054  RH  011%=      5-min Rain = 0
KMES 142330Z 20007KT 28/M05 A299 RMK A01 T02771053  RH  011%=      5-min Rain = 0
KMES 142335Z 20006KT 27/M05 A299 RMK A01 T02731053  RH  012%=      5-min Rain = 0
KMES 142340Z 19005KT 27/M05 A299 RMK A01 T02701053  RH  012%=      5-min Rain = 0
KMES 142345Z 19006KT 27/M05 A299 RMK A01 T02701054  RH  012%=      5-min Rain = 0
KMES 142350Z 18007KT 27/M05 A299 RMK A01 T02701053  RH  012%=      5-min Rain = 0
KMES 142355Z 18006KT 27/M05 A299 RMK A01 T02691053  RH  012%=      5-min Rain = 0
KMES 150000Z 17006KT 27/M05 A299 RMK A01 T02671053  RH  012%=      5-min Rain = 0
KMES 150005Z 18012G22KT 27/M05 A299 RMK A01 T02661047  RH  013%=      5-min Rain = 0
KMES 150010Z 17013G18KT 27/M03 A299 RMK A01 T02651030  RH  014%=      5-min Rain = 0
KMES 150015Z 18010G15KT 26/M02 A299 RMK A01 T02621017  RH  016%=      5-min Rain = 0
KMES 150020Z 18009G15KT 26/M01 A299 RMK A01 T02591012  RH  017%=      5-min Rain = 0
KMES 150025Z 18010G15KT 26/M01 A299 RMK A01 T02561009  RH  018%=      5-min Rain = 0
KMES 150030Z 18009KT 25/M01 A299 RMK A01 T02541008  RH  018%=      5-min Rain = 0
KMES 150035Z 17008G13KT 25/M01 A299 RMK A01 T02511007  RH  018%=      5-min Rain = 0
KMES 150040Z 17011G16KT 25/M01 A299 RMK A01 T02481006  RH  019%=      5-min Rain = 0
KMES 150045Z 17011G18KT 25/M00 A299 RMK A01 T02471003  RH  019%=      5-min Rain = 0
KMES 150050Z 18011G17KT 25/M00 A299 RMK A01 T02461001  RH  020%=      5-min Rain = 0
KMES 150055Z 18010KT 24/00 A299 RMK A01 T024400-0  RH  020%=      5-min Rain = 0
KMES 150100Z 17009G14KT 24/00 A299 RMK A01 T02430000  RH  020%=      5-min Rain = 0
KMES 150105Z 18010G18KT 24/00 A299 RMK A01 T02410001  RH  021%=      5-min Rain = 0
KMES 150110Z 18011G16KT 24/00 A299 RMK A01 T02400002  RH  021%=      5-min Rain = 0
KMES 150115Z 18011G16KT 24/00 A299 RMK A01 T02390003  RH  021%=      5-min Rain = 0
KMES 150120Z 18010G15KT 24/00 A299 RMK A01 T02370004  RH  022%=      5-min Rain = 0
KMES 150125Z 18011KT 24/01 A299 RMK A01 T02370006  RH  022%=      5-min Rain = 0
KMES 150130Z 18010KT 24/01 A2989 RMK A01 T02360007  RH  022%=      5-min Rain = 0
KMES 150135Z 18011G17KT 24/01 A2989 RMK A01 T02350007  RH  022%=      5-min Rain = 0
KMES 150140Z 17010G15KT 24/01 A2989 RMK A01 T02350008  RH  023%=      5-min Rain = 0
KMES 150145Z 18011G16KT 23/01 A299 RMK A01 T02340008  RH  023%=      5-min Rain = 0
KMES 150150Z 18010G16KT 23/01 A299 RMK A01 T02320009  RH  023%=      5-min Rain = 0
KMES 150155Z 18009G14KT 23/01 A299 RMK A01 T02300009  RH  023%=      5-min Rain = 0
KMES 150200Z 18010KT 23/01 A299 RMK A01 T02280009  RH  024%=      5-min Rain = 0
KMES 150205Z 18009G14KT 23/01 A299 RMK A01 T02270009  RH  024%=      5-min Rain = 0
KMES 150210Z 18008KT 23/01 A2991 RMK A01 T02260009  RH  024%=      5-min Rain = 0
KMES 150215Z 19009G16KT 23/01 A2991 RMK A01 T02250009  RH  024%=      5-min Rain = 0
KMES 150220Z 18010KT 23/01 A2991 RMK A01 T02250009  RH  024%=      5-min Rain = 0
KMES 150225Z 19009KT 22/01 A2991 RMK A01 T02230008  RH  024%=      5-min Rain = 0
KMES 150230Z 19009KT 22/01 A2991 RMK A01 T02220007  RH  024%=      5-min Rain = 0
KMES 150235Z 20007KT 22/01 A2991 RMK A01 T02210007  RH  024%=      5-min Rain = 0
KMES 150240Z 20007KT 22/01 A2991 RMK A01 T02170006  RH  025%=      5-min Rain = 0
KMES 150245Z 20006KT 21/01 A2991 RMK A01 T02130005  RH  025%=      5-min Rain = 0
KMES 150250Z 21007KT 21/01 A2992 RMK A01 T02130005  RH  025%=      5-min Rain = 0
KMES 150255Z 21008KT 21/01 A2992 RMK A01 T02100005  RH  026%=      5-min Rain = 0
KMES 150300Z 21008KT 21/01 A2992 RMK A01 T02090006  RH  026%=      5-min Rain = 0
KMES 150305Z 21009KT 21/01 A2992 RMK A01 T02070008  RH  027%=      5-min Rain = 0
KMES 150310Z 21010G15KT 21/01 A2992 RMK A01 T02050008  RH  027%=      5-min Rain = 0
KMES 150315Z 22010KT 20/01 A2992 RMK A01 T02040008  RH  027%=      5-min Rain = 0
KMES 150320Z 22009KT 20/01 A2992 RMK A01 T02010008  RH  028%=      5-min Rain = 0
KMES 150325Z 22009KT 20/01 A2992 RMK A01 T01970008  RH  028%=      5-min Rain = 0
KMES 150330Z 22008KT 20/01 A2992 RMK A01 T01950007  RH  029%=      5-min Rain = 0
KMES 150335Z 21008KT 19/01 A2992 RMK A01 T01940007  RH  029%=      5-min Rain = 0
KMES 150340Z 22007KT 19/01 A2993 RMK A01 T01940006  RH  029%=      5-min Rain = 0
KMES 150345Z 22007KT 19/01 A2993 RMK A01 T01930006  RH  029%=      5-min Rain = 0
KMES 150350Z 22007KT 19/01 A2993 RMK A01 T01910006  RH  029%=      5-min Rain = 0
KMES 150355Z 21005KT 19/01 A2993 RMK A01 T01890005  RH  029%=      5-min Rain = 0
KMES 150400Z 21005KT 19/01 A2993 RMK A01 T01860005  RH  030%=      5-min Rain = 0
KMES 150405Z 23006KT 18/01 A2993 RMK A01 T01830005  RH  030%=      5-min Rain = 0
KMES 150410Z 23006KT 18/01 A2993 RMK A01 T01830005  RH  030%=      5-min Rain = 0
KMES 150415Z 23006KT 18/01 A2993 RMK A01 T01820005  RH  031%=      5-min Rain = 0
KMES 150420Z 22006KT 18/01 A2993 RMK A01 T01790005  RH  031%=      5-min Rain = 0
KMES 150425Z 23007KT 18/01 A2993 RMK A01 T01790005  RH  031%=      5-min Rain = 0
KMES 150430Z 24006KT 18/01 A2993 RMK A01 T01780005  RH  031%=      5-min Rain = 0
KMES 150435Z 24005KT 18/00 A2993 RMK A01 T01780004  RH  031%=      5-min Rain = 0
KMES 150440Z 23005KT 18/00 A2993 RMK A01 T01760003  RH  031%=      5-min Rain = 0
KMES 150445Z 23004KT 17/00 A2993 RMK A01 T01720002  RH  032%=      5-min Rain = 0
KMES 150450Z 22003KT 17/00 A2993 RMK A01 T01690002  RH  033%=      5-min Rain = 0
KMES 150455Z 21003KT 17/00 A2993 RMK A01 T01680002  RH  033%=      5-min Rain = 0
KMES 150500Z 22002KT 17/M00 A2993 RMK A01 T01651003  RH  032%=      5-min Rain = 0
KMES 150505Z 22003KT 16/M01 A2993 RMK A01 T01561010  RH  032%=      5-min Rain = 0
KMES 150510Z 21002KT 15/M01 A2993 RMK A01 T01521010  RH  033%=      5-min Rain = 0
KMES 150515Z 13002KT 15/M00 A2993 RMK A01 T01481003  RH  036%=      5-min Rain = 0
KMES 150520Z 11002KT 14/M01 A2993 RMK A01 T01421006  RH  037%=      5-min Rain = 0
KMES 150525Z 12002KT 14/00 A2993 RMK A01 T013800-0  RH  039%=      5-min Rain = 0
KMES 150530Z 13002KT 14/M00 A2993 RMK A01 T01371001  RH  039%=      5-min Rain = 0
KMES 150535Z 13002KT 14/M00 A2992 RMK A01 T01351002  RH  039%=      5-min Rain = 0
KMES 150540Z 13002KT 13/M01 A2992 RMK A01 T01321007  RH  039%=      5-min Rain = 0
KMES 150545Z 14002KT 13/M01 A2992 RMK A01 T01301008  RH  039%=      5-min Rain = 0
KMES 150550Z 15000KT 13/M00 A2993 RMK A01 T01291003  RH  041%=      5-min Rain = 0
KMES 150555Z 12000KT 13/M01 A2993 RMK A01 T01301005  RH  040%=      5-min Rain = 0

Page generated in 0.0346 seconds.